Home > Products > Valid Products > TAF

000
FTUS43 KFGF 251700
TAFGFK
TAF
KGFK 251735Z 2518/2618 26010KT P6SM SCT025 BKN050
     FM251900 30011KT P6SM SCT250
     FM260100 VRB04KT P6SM SKC
     FM261400 26010KT P6SM SCT150=



000
FTUS43 KFGF 251700
TAFFAR
TAF
KFAR 251735Z 2518/2618 27010G20KT P6SM SCT020 BKN040
     FM251900 30012G20KT P6SM SCT250
     FM260100 28006KT P6SM SKC
     FM261400 26010KT P6SM SCT250=



000
FTUS43 KFGF 251400 AAA
TAFFAR
TAF AMD
KFAR 251433Z 2515/2612 18015G25KT P6SM BKN030
     FM251600 25015G25KT P6SM BKN060
     FM251800 30012G20KT P6SM SCT250
     FM260100 28006KT P6SM SKC=



000
FTUS43 KFGF 251100
TAFFAR
TAF
KFAR 251120Z 2512/2612 13007KT P6SM BKN030
     FM251500 23010KT P6SM BKN060
     FM252000 28011KT P6SM SKC=



000
FTUS43 KFGF 251100
TAFGFK
TAF
KGFK 251120Z 2512/2612 14007KT P6SM SCT100 BKN250
     FM251400 26010KT P6SM BKN050
     FM251900 28011KT P6SM SKC=



000
FTUS43 KFGF 250500
TAFFAR
TAF
KFAR 250522Z 2506/2606 12009KT P6SM VCSH OVC040
     FM251000 14007KT P6SM VCSH BKN040
     FM251500 23010KT P6SM BKN030
     FM252000 28011KT P6SM SKC=



000
FTUS43 KFGF 250500
TAFGFK
TAF
KGFK 250522Z 2506/2606 14005KT P6SM BKN045
     FM250900 14007KT P6SM VCSH BKN040
     FM251400 26010KT P6SM BKN030
     FM251900 28011KT P6SM SKC=



000
FTUS43 KFGF 250300 AAB
TAFFAR
TAF AMD
KFAR 250353Z 2504/2524 14011KT P6SM VCSH BKN150
      TEMPO 2504/2506 14016G27KT=



000
FTUS43 KFGF 250200 AAA
TAFFAR
TAF AMD
KFAR 250224Z 2502/2524 15011KT P6SM VCSH BKN070
      TEMPO 2502/2503 15021G27KT=



000
FTUS43 KFGF 242300
TAFGFK
TAF
KGFK 242340Z 2500/2524 16012KT P6SM BKN070
     FM250100 15009KT P6SM BKN060
     FM250300 11011KT P6SM SCT250
     FM251400 26010KT P6SM BKN030=



000
FTUS43 KFGF 242300
TAFFAR
TAF
KFAR 242340Z 2500/2524 16015G21KT P6SM VCSH BKN250
     FM250200 14011KT P6SM BKN040=



000
FTUS43 KFGF 241800 AAA
TAFGFK
TAF AMD
KGFK 241800Z 2418/2518 14015G21KT P6SM BKN120
     FM242300 15011KT P6SM BKN080=



000
FTUS43 KFGF 241700
TAFGFK
TAF
KGFK 241740Z 2418/2518 20008KT P6SM BKN090
     FM241900 14015G21KT P6SM BKN120
     FM242300 15011KT P6SM BKN080=



000
FTUS43 KFGF 241700
TAFFAR
TAF
KFAR 241740Z 2418/2518 15015G21KT P6SM BKN100
      TEMPO 2418/2419 VRB20G35KT SHRA
     FM242300 15011KT P6SM BKN080=



000
FTUS43 KFGF 241600 AAA
TAFGFK
TAF AMD
KGFK 241645Z 2417/2512 16008KT P6SM SCT250
      TEMPO 2417/2418 22015G30KT -RA BKN060
     FM241900 14015KT P6SM BKN120
     FM242300 15011KT P6SM BKN080=



000
FTUS43 KFGF 241600 AAA
TAFFAR
TAF AMD
KFAR 241635Z 2417/2512 14012KT P6SM VCTS BKN050CB
      TEMPO 2417/2418 VRB20G35KT
     FM241800 14015KT P6SM BKN120
     FM242300 15011KT P6SM BKN080=



000
FTUS43 KFGF 241100
TAFGFK
TAF
KGFK 241123Z 2412/2512 16008KT P6SM SCT250
     FM241900 14015KT P6SM BKN120
     FM242300 15011KT P6SM BKN080=



000
FTUS43 KFGF 241100
TAFFAR
TAF
KFAR 241123Z 2412/2512 16008KT P6SM SCT250
     FM241900 14015KT P6SM BKN120
     FM242300 15011KT P6SM BKN080=



000
FTUS43 KFGF 240500
TAFGFK
TAF
KGFK 240520Z 2406/2506 VRB04KT P6SM FEW040
     FM241500 15015KT P6SM BKN120
     FM242300 14014KT P6SM BKN090=



000
FTUS43 KFGF 240500
TAFFAR
TAF
KFAR 240520Z 2406/2506 VRB04KT P6SM FEW040
     FM241500 15015KT P6SM BKN120
     FM242300 16014KT P6SM BKN090=



000
FTUS43 KFGF 232300
TAFFAR
TAF
KFAR 232324Z 2400/2424 VRB05KT P6SM FEW050
     FM241500 14011KT P6SM BKN120=



000
FTUS43 KFGF 232300
TAFGFK
TAF
KGFK 232324Z 2400/2424 VRB04KT P6SM FEW040
     FM241500 15011KT P6SM BKN120=



000
FTUS43 KFGF 231700
TAFFAR
TAF
KFAR 231730Z 2318/2418 36007KT P6SM SCT120
     FM241500 14011KT P6SM BKN120=



000
FTUS43 KFGF 231700
TAFGFK
TAF
KGFK 231730Z 2318/2418 01007KT P6SM BKN050
     FM241500 15011KT P6SM BKN120=



000
FTUS43 KFGF 231100
TAFGFK
TAF
KGFK 231123Z 2312/2412 VRB03KT P6SM SCT250=



000
FTUS43 KFGF 231100
TAFFAR
TAF
KFAR 231123Z 2312/2412 VRB03KT P6SM SCT250=



000
FTUS43 KFGF 230500
TAFGFK
TAF
KGFK 230522Z 2306/2406 36003KT P6SM SCT250
     FM231600 35007KT P6SM SCT050=



000
FTUS43 KFGF 230500
TAFFAR
TAF
KFAR 230522Z 2306/2406 01003KT P6SM SCT250
     FM231600 36006KT P6SM SCT050=



000
FTUS43 KFGF 222300
TAFFAR
TAF
KFAR 222335Z 2300/2324 35012KT P6SM SKC
     FM230100 36006KT P6SM SKC
     FM231600 36006KT P6SM SCT050=



000
FTUS43 KFGF 222300
TAFGFK
TAF
KGFK 222335Z 2300/2324 36010KT P6SM SKC
     FM230100 01005KT P6SM SKC
     FM231600 35007KT P6SM SCT050=



    US Dept of Commerce
    National Oceanic and Atmospheric Administration
    National Weather Service
    1325 East West Highway
    Silver Spring, MD 20910
    Page Author: NWS Internet Services Team
Disclaimer
Information Quality
Credits
Glossary
Privacy Policy
Freedom of Information Act (FOIA)
About Us
Career Opportunities